METAR AND TAF INFORMATION
METAR FOR DNMA
ADDS - METARS form results

(1007 UTC 21 January 2018)
Data provider http://aviationweather.gov/adds/metars/
 
Forecast for: DNMA (MAIDUGURI , NG)
Text: TAF DNMA 202150Z 2100/2206 06010KT CAVOK
Forecast period: 0000 UTC 21 January 2018 to 0600 UTC 22 January 2018
Forecast type: FROM: standard forecast or significant change
Winds: from the ENE (60 degrees) at 12 MPH (10 knots; 5.2 m/s)
Visibility: 6 or more miles (10+ km)
Clouds: not forecast
Weather: NSW  (no significant weather)

 AIRPORT MAP

 RUNWAY INFORMATION
Runway 05 Runway length 9846 ft Runway width 197 ft
Runway elevation 1097 ft Runway displaced threshold 0 ft Runway heading 47
Runway 23 Runway length 9846 ft Runway width 197 ft
Runway elevation 1086 ft Runway displaced threshold 0 ft Runway heading 227

 AIRPORT FREQUENCIES
Type TWR Name TWR Frequency 123.1 MHZ

 AIRPORT NEAR NAVIGATION AIDS
Type NDB Name Maiduguri Frequency 332 KHZ
Type VOR-DME Name Maiduguri Frequency 113700 KHZ



v2.6.1